Watchman — WDG3938 — position and weather

sailwx.info

Track history (hours):
 
Tides and Currents Weather Stations Pressure Air Temp Water Temp Dewpoint Dewpoint Depression Visibility Wind Speed Wind Dir Waves Ship Positions

Watchman

Owner: Doumit, Chris A, Cathlamet, WA. More information available from US FCC via Universal Licensing System and Coast Guard Vessel Documentation Center.

Last reported at 2018-Jun-01 18:59 UTC. Time now 2018-Jun-24 03:41 UTC.
Position N 54°37' W 130°44'.
Warning: this ship's position is 22 days out of date.

Length 29 m.

MMSI: 367531220.

Date/timePositionNaut miles runAvg speedWind from/ knotsBaromVisibWave heightAir tempDewpointWater temp
2018-Jun-01 18:59N 54°37' W 130°44'4 8.3
2018-Jun-01 18:30N 54°33' W 130°43'4 8.2
2018-Jun-01 18:00N 54°29' W 130°41'4 7.9
2018-Jun-01 17:30N 54°25' W 130°38'4 8.0
2018-Jun-01 17:00N 54°22' W 130°36'4 7.9
2018-Jun-01 16:30N 54°18' W 130°34'4 7.9
2018-Jun-01 16:00N 54°15' W 130°30'4 8.5
2018-Jun-01 15:30N 54°11' W 130°26'4 9.0
2018-Jun-01 15:00N 54°07' W 130°22'5 9.0
2018-Jun-01 14:30N 54°04' W 130°17'4 8.6
2018-Jun-01 14:00N 54°00' W 130°13'4 8.5
2018-Jun-01 13:30N 53°56' W 130°11'4 8.2
2018-Jun-01 13:00N 53°53' W 130°06'4 8.2
2018-Jun-01 12:30N 53°50' W 130°01'4 7.9
2018-Jun-01 11:58N 53°47' W 129°56'95 6.8
2018-May-31 21:52N 52°28' W 128°27'3 8.0
2018-May-31 21:29N 52°25' W 128°29'4 7.6
2018-May-31 20:58N 52°22' W 128°32'12 6.8
2018-May-31 19:14N 52°15' W 128°16'2 7.6
2018-May-31 18:54N 52°14' W 128°12'3 7.5
2018-May-31 18:28N 52°12' W 128°08'3 6.4
2018-May-31 18:01N 52°09' W 128°08'4 7.5
2018-May-31 17:25N 52°05' W 128°06'3 7.4
2018-May-31 16:58N 52°05' W 128°00'3 6.6
2018-May-31 16:30N 52°03' W 127°56'3 6.3
2018-May-31 16:00N 52°00' W 127°56'3 6.6
2018-May-31 15:30N 51°57' W 127°56'3 6.9
2018-May-31 15:00N 51°53' W 127°56'4 7.3
2018-May-31 14:30N 51°50' W 127°55'4 7.2
2018-May-31 14:00N 51°46' W 127°55'4 7.4
2018-May-31 13:30N 51°42' W 127°55'3 6.9
2018-May-31 13:00N 51°39' W 127°54'3 6.4
2018-May-31 12:30N 51°36' W 127°53'3 6.5
2018-May-31 12:00N 51°33' W 127°52'3 6.9
2018-May-31 11:31N 51°29' W 127°51'4 6.8
2018-May-31 10:58N 51°26' W 127°51'3 6.6
2018-May-31 10:30N 51°22' W 127°52'12 6.8
2018-May-31 08:48N 51°11' W 127°51'3 6.2
2018-May-31 08:18N 51°08' W 127°49'2 7.0
2018-May-31 07:57N 51°07' W 127°46'3 6.8
2018-May-31 07:30N 51°04' W 127°42'4 7.0
2018-May-31 07:00N 51°02' W 127°38'3 7.0
2018-May-31 06:30N 50°60' W 127°34'4 7.1
2018-May-31 06:00N 50°58' W 127°30'4 7.3
2018-May-31 05:31N 50°55' W 127°25'4 7.2
2018-May-31 05:00N 50°53' W 127°21'4 6.9
2018-May-31 04:29N 50°51' W 127°16'4 7.1
2018-May-31 04:00N 50°50' W 127°11'4 7.3
2018-May-31 03:28N 50°48' W 127°06'70 6.8
2018-May-30 17:07N 50°19' W 125°25'2 9.1
2018-May-30 16:55N 50°17' W 125°24'4 8.9
2018-May-30 16:30N 50°13' W 125°23'510.2
2018-May-30 16:00N 50°08' W 125°21'611.3
2018-May-30 15:30N 50°04' W 125°15'510.9
2018-May-30 15:00N 49°59' W 125°12'4 7.9
2018-May-30 14:29N 49°56' W 125°07'4 7.2
2018-May-30 14:00N 49°54' W 125°03'3 6.5
2018-May-30 13:30N 49°52' W 124°59'3 7.0
2018-May-30 13:00N 49°49' W 124°56'3 6.8
2018-May-30 12:30N 49°47' W 124°52'3 6.0
2018-May-30 12:00N 49°45' W 124°49'3 5.8
2018-May-30 11:30N 49°43' W 124°46'3 6.0
2018-May-30 11:00N 49°41' W 124°42'3 5.8
2018-May-30 10:30N 49°38' W 124°39'3 5.7
2018-May-30 09:57N 49°36' W 124°36'67 6.2
2018-May-29 23:03N 48°51' W 123°19'1 8.6
2018-May-29 22:53N 48°51' W 123°21'3 8.0
2018-May-29 22:29N 48°48' W 123°20'4 8.2
2018-May-29 22:00N 48°45' W 123°18'4 8.0
2018-May-29 21:30N 48°41' W 123°16'8 8.2
2018-May-29 20:29N 48°33' W 123°14'4 8.1
2018-May-29 20:00N 48°29' W 123°13'4 8.7
2018-May-29 19:30N 48°24' W 123°13'19 5.7
2018-May-29 16:08N 48°08' W 123°27'0 0.0
2018-May-29 11:47N 48°08' W 123°27'0 0.0
2018-May-29 10:59N 48°08' W 123°27'0 0.0
2018-May-29 09:09N 48°08' W 123°27'34 2.4
2018-May-28 19:00N 48°18' W 124°15'4 7.1
2018-May-28 18:30N 48°20' W 124°20'3 6.8
2018-May-28 17:59N 48°21' W 124°24'3 6.3
2018-May-28 17:29N 48°22' W 124°29'3 6.2
2018-May-28 17:00N 48°23' W 124°33'3 6.4
2018-May-28 16:30N 48°24' W 124°38'4 6.8
2018-May-28 15:59N 48°24' W 124°43'3 6.1
2018-May-28 15:25N 48°22' W 124°47'3 6.4
2018-May-28 15:00N 48°19' W 124°48'4 7.0
2018-May-28 14:29N 48°16' W 124°50'78 6.7
2018-May-28 02:55N 46°60' W 124°26'3 6.9
2018-May-28 02:30N 46°57' W 124°25'3 6.7
2018-May-28 02:00N 46°54' W 124°24'3 6.6
2018-May-28 01:30N 46°51' W 124°23'3 6.6
2018-May-28 01:01N 46°48' W 124°21'3 6.6
2018-May-28 00:30N 46°44' W 124°20'3 6.7
2018-May-28 00:00N 46°41' W 124°19'3 6.4
2018-May-27 23:30N 46°38' W 124°18'3 6.2
2018-May-27 23:00N 46°35' W 124°17'3 6.2
2018-May-27 22:30N 46°32' W 124°16'3 6.3
2018-May-27 22:00N 46°29' W 124°15'3 6.8
2018-May-27 21:30N 46°26' W 124°14'3 6.4
2018-May-27 21:00N 46°23' W 124°13'3 6.4
2018-May-27 20:30N 46°19' W 124°11'3 6.6
2018-May-27 20:00N 46°16' W 124°10'3 5.9
2018-May-27 19:31N 46°14' W 124°07'4 7.5
2018-May-27 19:00N 46°15' W 124°02'3 5.9
2018-May-27 18:31N 46°14' W 123°58'3 6.5
2018-May-27 18:01N 46°12' W 123°55'3 6.5
2018-May-27 17:30N 46°12' W 123°50'4 7.3
2018-May-27 17:01N 46°13' W 123°46'4 8.4
2018-May-27 16:30N 46°15' W 123°40'5 9.7
2018-May-27 16:00N 46°15' W 123°33'4 8.7
2018-May-27 15:30N 46°15' W 123°27'4 8.1
2018-May-27 15:00N 46°12' W 123°23'0 0.0
2018-May-27 14:31N 46°12' W 123°23'0 0.0
2018-May-27 14:00N 46°12' W 123°23'0 0.0
2018-May-27 13:30N 46°12' W 123°23'0 0.0
2018-May-27 13:00N 46°12' W 123°23'0 0.0
2018-May-27 12:31N 46°12' W 123°23'0 0.0
2018-May-27 12:00N 46°12' W 123°23'0 0.0
2018-May-27 11:31N 46°12' W 123°23'0 0.0
2018-May-27 11:00N 46°12' W 123°23'0 0.0
2018-May-27 10:30N 46°12' W 123°23'0 0.0
2018-May-27 10:00N 46°12' W 123°23'0 0.0
2018-May-27 09:31N 46°12' W 123°23'0 0.0
2018-May-27 09:01N 46°12' W 123°23'0 0.0
2018-May-27 08:30N 46°12' W 123°23'0 0.0
2018-May-27 08:00N 46°12' W 123°23'0 0.0
2018-May-27 07:31N 46°12' W 123°23'0 0.0
2018-May-27 06:59N 46°12' W 123°23'0 0.0
2018-May-27 06:31N 46°12' W 123°23'0 0.0
2018-May-27 06:01N 46°12' W 123°23'0 0.0
2018-May-27 05:30N 46°12' W 123°23'0 0.0
2018-May-27 05:00N 46°12' W 123°23'0 0.0
2018-May-27 04:30N 46°12' W 123°23'0 0.0
2018-May-27 03:54N 46°12' W 123°23'0 0.0
2018-May-27 03:30N 46°12' W 123°23'0 0.0
2018-May-27 02:58N 46°12' W 123°23'0 0.0
2018-May-27 02:30N 46°12' W 123°23'0 0.0
2018-May-27 02:00N 46°12' W 123°23'0 0.0
2018-May-27 01:30N 46°12' W 123°23'0 0.0
2018-May-27 01:01N 46°12' W 123°23'0 0.0
2018-May-27 00:24N 46°12' W 123°23'0 0.0
2018-May-27 00:01N 46°12' W 123°23'0 0.0
2018-May-26 23:30N 46°12' W 123°23'0 0.0
2018-May-26 23:00N 46°12' W 123°23'0 0.0
2018-May-26 22:29N 46°12' W 123°23'0 0.0
2018-May-26 22:01N 46°12' W 123°23'0 0.0
2018-May-26 21:30N 46°12' W 123°23'0 0.0
2018-May-26 20:55N 46°12' W 123°23'0 0.0
2018-May-26 20:24N 46°12' W 123°23'0 0.0
2018-May-26 20:00N 46°12' W 123°23'0 0.0
2018-May-26 19:30N 46°12' W 123°23'0 0.0
2018-May-26 19:00N 46°12' W 123°23'0 0.0
2018-May-26 18:30N 46°12' W 123°23'0 0.0
2018-May-26 18:00N 46°12' W 123°23'0 0.0
2018-May-26 17:30N 46°12' W 123°23'0 0.0
2018-May-26 17:00N 46°12' W 123°23'0 0.0
2018-May-26 16:31N 46°12' W 123°23'0 0.0
2018-May-26 15:28N 46°12' W 123°23'0 0.0
2018-May-26 14:46N 46°12' W 123°23'0 0.0
2018-May-26 14:30N 46°12' W 123°23'0 0.0
2018-May-26 14:00N 46°12' W 123°23'0 0.0
2018-May-26 13:07N 46°12' W 123°23'0 0.0
2018-May-26 12:53N 46°12' W 123°23'0 0.0
2018-May-26 12:31N 46°12' W 123°23'0 0.0
2018-May-26 12:00N 46°12' W 123°23'0 0.0
2018-May-26 11:31N 46°12' W 123°23'0 0.0
2018-May-26 11:00N 46°12' W 123°23'0 0.0
2018-May-26 10:30N 46°12' W 123°23'0 0.0
2018-May-26 10:00N 46°12' W 123°23'0 0.0
2018-May-26 09:30N 46°12' W 123°23'0 0.0
2018-May-26 09:01N 46°12' W 123°23'0 0.0
2018-May-26 08:31N 46°12' W 123°23'0 0.0
2018-May-26 08:00N 46°12' W 123°23'0 0.0
2018-May-26 07:31N 46°12' W 123°23'0 0.0
2018-May-26 06:59N 46°12' W 123°23'0 0.0
2018-May-26 06:30N 46°12' W 123°23'0 0.0
2018-May-26 05:31N 46°12' W 123°23'0 0.0
2018-May-26 05:00N 46°12' W 123°23'0 0.0
2018-May-26 04:30N 46°12' W 123°23'0 0.0
2018-May-26 04:01N 46°12' W 123°23'0 0.0
2018-May-26 03:30N 46°12' W 123°23'0 0.0
2018-May-26 03:00N 46°12' W 123°23'0 0.0
2018-May-26 02:31N 46°12' W 123°23'0 0.0
2018-May-26 02:01N 46°12' W 123°23'0 0.0
2018-May-26 01:31N 46°12' W 123°23'0 0.0
2018-May-26 01:01N 46°12' W 123°23'0 0.0
2018-May-26 00:26N 46°12' W 123°23'0 0.0
2018-May-26 00:00N 46°12' W 123°23'0 0.0
2018-May-25 23:30N 46°12' W 123°23'0 0.0
2018-May-25 23:00N 46°12' W 123°23'0 0.0
2018-May-25 22:31N 46°12' W 123°23'0 0.0
2018-May-25 22:00N 46°12' W 123°23'0 0.0
2018-May-25 21:30N 46°12' W 123°23'0 0.0
2018-May-25 21:00N 46°12' W 123°23'0 0.0
2018-May-25 20:30N 46°12' W 123°23'0 0.0
2018-May-25 20:00N 46°12' W 123°23'0 0.0
2018-May-25 19:30N 46°12' W 123°23'0 0.0
2018-May-25 19:01N 46°12' W 123°23'0 0.0
2018-May-25 18:30N 46°12' W 123°23'0 0.0
2018-May-25 18:00N 46°12' W 123°23'0 0.0
2018-May-25 17:30N 46°12' W 123°23'0 0.0
2018-May-25 17:00N 46°12' W 123°23'0 0.0
2018-May-25 16:30N 46°12' W 123°23'0 0.0
2018-May-25 16:00N 46°12' W 123°23'0 0.0
2018-May-25 15:30N 46°12' W 123°23'0 0.0
2018-May-25 15:01N 46°12' W 123°23'0 0.0
2018-May-25 14:30N 46°12' W 123°23'0 0.0
2018-May-25 14:01N 46°12' W 123°23'0 0.0
2018-May-25 13:30N 46°12' W 123°23'0 0.0
2018-May-25 12:47N 46°12' W 123°23'0 0.0
2018-May-25 12:30N 46°12' W 123°23'0 0.0
2018-May-25 12:00N 46°12' W 123°23'0 0.0
2018-May-25 11:30N 46°12' W 123°23'0 0.0
2018-May-25 11:00N 46°12' W 123°23'0 0.0
2018-May-25 10:30N 46°12' W 123°23'0 0.0
2018-May-25 10:01N 46°12' W 123°23'0 0.0
2018-May-25 09:30N 46°12' W 123°23'0 0.0
2018-May-25 09:00N 46°12' W 123°23'0 0.0
2018-May-25 08:30N 46°12' W 123°23'0 0.0
2018-May-25 08:00N 46°12' W 123°23'0 0.0
2018-May-25 07:30N 46°12' W 123°23'0 0.0
2018-May-25 06:45N 46°12' W 123°23'0 0.0
2018-May-25 06:30N 46°12' W 123°23'0 0.0
2018-May-25 06:00N 46°12' W 123°23'0 0.0
2018-May-25 05:31N 46°12' W 123°23'0 0.0
2018-May-25 05:00N 46°12' W 123°23'0 0.0
2018-May-25 04:27N 46°12' W 123°23'0 0.0
2018-May-25 04:00N 46°12' W 123°23'0 0.0
2018-May-25 03:30N 46°12' W 123°23'0 0.0
2018-May-25 03:00N 46°12' W 123°23'0 0.0
2018-May-25 02:30N 46°12' W 123°23'0 0.0
2018-May-25 01:58N 46°12' W 123°23'0 0.0
2018-May-25 01:14N 46°12' W 123°23'0 0.0
2018-May-25 01:00N 46°12' W 123°23'0 0.0
2018-May-25 00:30N 46°12' W 123°23'0 0.0
2018-May-24 23:53N 46°12' W 123°23'0 0.0
2018-May-24 23:31N 46°12' W 123°23'0 0.0
2018-May-24 23:00N 46°12' W 123°23'0 0.0
2018-May-24 22:31N 46°12' W 123°23'0 0.0
2018-May-24 21:51N 46°12' W 123°23'0 0.0
2018-May-24 21:30N 46°12' W 123°23'0 0.0
2018-May-24 21:01N 46°12' W 123°23'0 0.0
2018-May-24 20:30N 46°12' W 123°23'0 0.0
2018-May-24 19:50N 46°12' W 123°23'0 0.0
2018-May-24 19:31N 46°12' W 123°23'0 0.0
2018-May-24 19:01N 46°12' W 123°23'0 0.0
2018-May-24 18:31N 46°12' W 123°23'0 0.0
2018-May-24 18:00N 46°12' W 123°23'0 0.0
2018-May-24 17:22N 46°12' W 123°23'0 0.0
2018-May-24 17:00N 46°12' W 123°23'0 0.0
2018-May-24 16:31N 46°12' W 123°23'0 0.0
2018-May-24 15:56N 46°12' W 123°23'0 0.0
2018-May-24 15:30N 46°12' W 123°23'0 0.0
2018-May-24 14:50N 46°12' W 123°23'0 0.0
2018-May-24 14:30N 46°12' W 123°23'0 0.0
2018-May-24 14:00N 46°12' W 123°23'0 0.0
2018-May-24 13:30N 46°12' W 123°23'0 0.0
2018-May-24 09:01N 46°12' W 123°23'0 0.0
2018-May-24 08:30N 46°12' W 123°23'0 0.0
2018-May-24 08:01N 46°12' W 123°23'0 0.0
2018-May-24 07:31N 46°12' W 123°23'0 0.0
2018-May-24 06:59N 46°12' W 123°23'0 0.0
2018-May-24 06:31N 46°12' W 123°23'0 0.0
2018-May-24 06:00N 46°12' W 123°23'0 0.0
2018-May-24 05:30N 46°12' W 123°23'0 0.0
2018-May-24 05:01N 46°12' W 123°23'0 0.0
2018-May-24 04:30N 46°12' W 123°23'0 0.0
2018-May-24 04:00N 46°12' W 123°23'0 0.0
2018-May-24 03:17N 46°12' W 123°23'0 0.0
2018-May-24 03:00N 46°12' W 123°23'0 0.0
2018-May-24 02:30N 46°12' W 123°23'0 0.0
2018-May-24 02:00N 46°12' W 123°23'0 0.0
2018-May-24 00:59N 46°12' W 123°23'0 0.0
2018-May-24 00:30N 46°12' W 123°23'0 0.0
2018-May-24 00:00N 46°12' W 123°23'0 0.0
2018-May-23 23:30N 46°12' W 123°23'0 0.0
2018-May-23 23:01N 46°12' W 123°23'0 0.0
2018-May-23 22:30N 46°12' W 123°23'0 0.0
2018-May-23 22:00N 46°12' W 123°23'0 0.0
2018-May-23 21:30N 46°12' W 123°23'0 0.0
2018-May-23 21:01N 46°12' W 123°23'0 0.0
2018-May-23 20:31N 46°12' W 123°23'0 0.0
2018-May-23 20:00N 46°12' W 123°23'0 0.0
2018-May-23 19:15N 46°12' W 123°23'0 0.0
2018-May-23 19:01N 46°12' W 123°23'0 0.0
2018-May-23 18:15N 46°12' W 123°23'0 0.0
2018-May-23 17:54N 46°12' W 123°23'0 0.0
2018-May-23 17:14N 46°12' W 123°23'0 0.0
2018-May-23 17:00N 46°12' W 123°23'0 0.0
2018-May-23 16:16N 46°12' W 123°23'0 0.0
2018-May-23 16:00N 46°12' W 123°23'0 0.0
2018-May-23 15:30N 46°12' W 123°23'0 0.0
2018-May-23 15:00N 46°12' W 123°23'0 0.0
2018-May-23 14:31N 46°12' W 123°23'0 0.0
2018-May-23 14:00N 46°12' W 123°23'0 0.0
2018-May-23 13:30N 46°12' W 123°23'0 0.0
2018-May-23 12:11N 46°12' W 123°23'0 0.0
2018-May-23 11:41N 46°12' W 123°23'0 0.0
2018-May-23 11:16N 46°12' W 123°23'0 0.0
2018-May-23 11:01N 46°12' W 123°23'0 0.0
2018-May-23 10:31N 46°12' W 123°23'0 0.0
2018-May-23 10:00N 46°12' W 123°23'0 0.0
2018-May-23 09:30N 46°12' W 123°23'0 0.0
2018-May-23 09:00N 46°12' W 123°23'0 0.0
2018-May-23 08:30N 46°12' W 123°23'0 0.0
2018-May-23 08:00N 46°12' W 123°23'0 0.0
2018-May-23 07:31N 46°12' W 123°23'0 0.0
2018-May-23 06:59N 46°12' W 123°23'0 0.0
2018-May-23 06:31N 46°12' W 123°23'0 0.0
2018-May-23 06:01N 46°12' W 123°23'0 0.0
2018-May-23 05:20N 46°12' W 123°23'0 0.0
2018-May-23 05:00N 46°12' W 123°23'0 0.0
2018-May-23 04:29N 46°12' W 123°23'0 0.0
2018-May-23 04:01N 46°12' W 123°23'0 0.0
2018-May-23 03:30N 46°12' W 123°23'0 0.0
2018-May-23 02:54N 46°12' W 123°23'0 0.0
2018-May-23 02:31N 46°12' W 123°23'0 0.0
2018-May-23 02:01N 46°12' W 123°23'0 0.0
2018-May-23 01:31N 46°12' W 123°23'0 0.0
2018-May-23 01:01N 46°12' W 123°23'0 0.0
2018-May-23 00:31N 46°12' W 123°23'0 0.0
2018-May-22 23:46N 46°12' W 123°23'0 0.0
2018-May-22 23:30N 46°12' W 123°23'0 0.0
2018-May-22 23:01N 46°12' W 123°23'0 0.0
2018-May-22 22:30N 46°12' W 123°23'0 0.0
2018-May-22 22:00N 46°12' W 123°23'0 0.0
2018-May-22 21:30N 46°12' W 123°23'0 0.0
2018-May-22 21:01N 46°12' W 123°23'0 0.0
2018-May-22 20:30N 46°12' W 123°23'0 0.0
2018-May-22 20:00N 46°12' W 123°23'0 0.0
2018-May-22 19:30N 46°12' W 123°23'0 0.0
2018-May-22 19:00N 46°12' W 123°23'  
Track history (hours):
 
Tides and Currents Weather Stations Pressure Air Temp Water Temp Dewpoint Dewpoint Depression Visibility Wind Speed Wind Dir Waves Ship Positions

Watchman

Owner: Doumit, Chris A, Cathlamet, WA. More information available from US FCC via Universal Licensing System and Coast Guard Vessel Documentation Center.

Last reported at 2018-Jun-01 18:59 UTC. Time now 2018-Jun-24 03:41 UTC.
Position N 54°37' W 130°44'.
Warning: this ship's position is 22 days out of date.

Length 29 m.

MMSI: 367531220.

Date/timePositionNaut miles runAvg speedWind from/ knotsBaromVisibWave heightAir tempDewpointWater temp
2018-Jun-01 18:59N 54°37' W 130°44'4 8.3
2018-Jun-01 18:30N 54°33' W 130°43'4 8.2
2018-Jun-01 18:00N 54°29' W 130°41'4 7.9
2018-Jun-01 17:30N 54°25' W 130°38'4 8.0
2018-Jun-01 17:00N 54°22' W 130°36'4 7.9
2018-Jun-01 16:30N 54°18' W 130°34'4 7.9
2018-Jun-01 16:00N 54°15' W 130°30'4 8.5
2018-Jun-01 15:30N 54°11' W 130°26'4 9.0
2018-Jun-01 15:00N 54°07' W 130°22'5 9.0
2018-Jun-01 14:30N 54°04' W 130°17'4 8.6
2018-Jun-01 14:00N 54°00' W 130°13'4 8.5
2018-Jun-01 13:30N 53°56' W 130°11'4 8.2
2018-Jun-01 13:00N 53°53' W 130°06'4 8.2
2018-Jun-01 12:30N 53°50' W 130°01'4 7.9
2018-Jun-01 11:58N 53°47' W 129°56'95 6.8
2018-May-31 21:52N 52°28' W 128°27'3 8.0
2018-May-31 21:29N 52°25' W 128°29'4 7.6
2018-May-31 20:58N 52°22' W 128°32'12 6.8
2018-May-31 19:14N 52°15' W 128°16'2 7.6
2018-May-31 18:54N 52°14' W 128°12'3 7.5
2018-May-31 18:28N 52°12' W 128°08'3 6.4
2018-May-31 18:01N 52°09' W 128°08'4 7.5
2018-May-31 17:25N 52°05' W 128°06'3 7.4
2018-May-31 16:58N 52°05' W 128°00'3 6.6
2018-May-31 16:30N 52°03' W 127°56'3 6.3
2018-May-31 16:00N 52°00' W 127°56'3 6.6
2018-May-31 15:30N 51°57' W 127°56'3 6.9
2018-May-31 15:00N 51°53' W 127°56'4 7.3
2018-May-31 14:30N 51°50' W 127°55'4 7.2
2018-May-31 14:00N 51°46' W 127°55'4 7.4
2018-May-31 13:30N 51°42' W 127°55'3 6.9
2018-May-31 13:00N 51°39' W 127°54'3 6.4
2018-May-31 12:30N 51°36' W 127°53'3 6.5
2018-May-31 12:00N 51°33' W 127°52'3 6.9
2018-May-31 11:31N 51°29' W 127°51'4 6.8
2018-May-31 10:58N 51°26' W 127°51'3 6.6
2018-May-31 10:30N 51°22' W 127°52'12 6.8
2018-May-31 08:48N 51°11' W 127°51'3 6.2
2018-May-31 08:18N 51°08' W 127°49'2 7.0
2018-May-31 07:57N 51°07' W 127°46'3 6.8
2018-May-31 07:30N 51°04' W 127°42'4 7.0
2018-May-31 07:00N 51°02' W 127°38'3 7.0
2018-May-31 06:30N 50°60' W 127°34'4 7.1
2018-May-31 06:00N 50°58' W 127°30'4 7.3
2018-May-31 05:31N 50°55' W 127°25'4 7.2
2018-May-31 05:00N 50°53' W 127°21'4 6.9
2018-May-31 04:29N 50°51' W 127°16'4 7.1
2018-May-31 04:00N 50°50' W 127°11'4 7.3
2018-May-31 03:28N 50°48' W 127°06'70 6.8
2018-May-30 17:07N 50°19' W 125°25'2 9.1
2018-May-30 16:55N 50°17' W 125°24'4 8.9
2018-May-30 16:30N 50°13' W 125°23'510.2
2018-May-30 16:00N 50°08' W 125°21'611.3
2018-May-30 15:30N 50°04' W 125°15'510.9
2018-May-30 15:00N 49°59' W 125°12'4 7.9
2018-May-30 14:29N 49°56' W 125°07'4 7.2
2018-May-30 14:00N 49°54' W 125°03'3 6.5
2018-May-30 13:30N 49°52' W 124°59'3 7.0
2018-May-30 13:00N 49°49' W 124°56'3 6.8
2018-May-30 12:30N 49°47' W 124°52'3 6.0
2018-May-30 12:00N 49°45' W 124°49'3 5.8
2018-May-30 11:30N 49°43' W 124°46'3 6.0
2018-May-30 11:00N 49°41' W 124°42'3 5.8
2018-May-30 10:30N 49°38' W 124°39'3 5.7
2018-May-30 09:57N 49°36' W 124°36'67 6.2
2018-May-29 23:03N 48°51' W 123°19'1 8.6
2018-May-29 22:53N 48°51' W 123°21'3 8.0
2018-May-29 22:29N 48°48' W 123°20'4 8.2
2018-May-29 22:00N 48°45' W 123°18'4 8.0
2018-May-29 21:30N 48°41' W 123°16'8 8.2
2018-May-29 20:29N 48°33' W 123°14'4 8.1
2018-May-29 20:00N 48°29' W 123°13'4 8.7
2018-May-29 19:30N 48°24' W 123°13'19 5.7
2018-May-29 16:08N 48°08' W 123°27'0 0.0
2018-May-29 11:47N 48°08' W 123°27'0 0.0
2018-May-29 10:59N 48°08' W 123°27'0 0.0
2018-May-29 09:09N 48°08' W 123°27'34 2.4
2018-May-28 19:00N 48°18' W 124°15'4 7.1
2018-May-28 18:30N 48°20' W 124°20'3 6.8
2018-May-28 17:59N 48°21' W 124°24'3 6.3
2018-May-28 17:29N 48°22' W 124°29'3 6.2
2018-May-28 17:00N 48°23' W 124°33'3 6.4
2018-May-28 16:30N 48°24' W 124°38'4 6.8
2018-May-28 15:59N 48°24' W 124°43'3 6.1
2018-May-28 15:25N 48°22' W 124°47'3 6.4
2018-May-28 15:00N 48°19' W 124°48'4 7.0
2018-May-28 14:29N 48°16' W 124°50'78 6.7
2018-May-28 02:55N 46°60' W 124°26'3 6.9
2018-May-28 02:30N 46°57' W 124°25'3 6.7
2018-May-28 02:00N 46°54' W 124°24'3 6.6
2018-May-28 01:30N 46°51' W 124°23'3 6.6
2018-May-28 01:01N 46°48' W 124°21'3 6.6
2018-May-28 00:30N 46°44' W 124°20'3 6.7
2018-May-28 00:00N 46°41' W 124°19'3 6.4
2018-May-27 23:30N 46°38' W 124°18'3 6.2
2018-May-27 23:00N 46°35' W 124°17'3 6.2
2018-May-27 22:30N 46°32' W 124°16'3 6.3
2018-May-27 22:00N 46°29' W 124°15'3 6.8
2018-May-27 21:30N 46°26' W 124°14'3 6.4
2018-May-27 21:00N 46°23' W 124°13'3 6.4
2018-May-27 20:30N 46°19' W 124°11'3 6.6
2018-May-27 20:00N 46°16' W 124°10'3 5.9
2018-May-27 19:31N 46°14' W 124°07'4 7.5
2018-May-27 19:00N 46°15' W 124°02'3 5.9
2018-May-27 18:31N 46°14' W 123°58'3 6.5
2018-May-27 18:01N 46°12' W 123°55'3 6.5
2018-May-27 17:30N 46°12' W 123°50'4 7.3
2018-May-27 17:01N 46°13' W 123°46'4 8.4
2018-May-27 16:30N 46°15' W 123°40'5 9.7
2018-May-27 16:00N 46°15' W 123°33'4 8.7
2018-May-27 15:30N 46°15' W 123°27'4 8.1
2018-May-27 15:00N 46°12' W 123°23'0 0.0
2018-May-27 14:31N 46°12' W 123°23'0 0.0
2018-May-27 14:00N 46°12' W 123°23'0 0.0
2018-May-27 13:30N 46°12' W 123°23'0 0.0
2018-May-27 13:00N 46°12' W 123°23'0 0.0
2018-May-27 12:31N 46°12' W 123°23'0 0.0
2018-May-27 12:00N 46°12' W 123°23'0 0.0
2018-May-27 11:31N 46°12' W 123°23'0 0.0
2018-May-27 11:00N 46°12' W 123°23'0 0.0
2018-May-27 10:30N 46°12' W 123°23'0 0.0
2018-May-27 10:00N 46°12' W 123°23'0 0.0
2018-May-27 09:31N 46°12' W 123°23'0 0.0
2018-May-27 09:01N 46°12' W 123°23'0 0.0
2018-May-27 08:30N 46°12' W 123°23'0 0.0
2018-May-27 08:00N 46°12' W 123°23'0 0.0
2018-May-27 07:31N 46°12' W 123°23'0 0.0
2018-May-27 06:59N 46°12' W 123°23'0 0.0
2018-May-27 06:31N 46°12' W 123°23'0 0.0
2018-May-27 06:01N 46°12' W 123°23'0 0.0
2018-May-27 05:30N 46°12' W 123°23'0 0.0
2018-May-27 05:00N 46°12' W 123°23'0 0.0
2018-May-27 04:30N 46°12' W 123°23'0 0.0
2018-May-27 03:54N 46°12' W 123°23'0 0.0
2018-May-27 03:30N 46°12' W 123°23'0 0.0
2018-May-27 02:58N 46°12' W 123°23'0 0.0
2018-May-27 02:30N 46°12' W 123°23'0 0.0
2018-May-27 02:00N 46°12' W 123°23'0 0.0
2018-May-27 01:30N 46°12' W 123°23'0 0.0
2018-May-27 01:01N 46°12' W 123°23'0 0.0
2018-May-27 00:24N 46°12' W 123°23'0 0.0
2018-May-27 00:01N 46°12' W 123°23'0 0.0
2018-May-26 23:30N 46°12' W 123°23'0 0.0
2018-May-26 23:00N 46°12' W 123°23'0 0.0
2018-May-26 22:29N 46°12' W 123°23'0 0.0
2018-May-26 22:01N 46°12' W 123°23'0 0.0
2018-May-26 21:30N 46°12' W 123°23'0 0.0
2018-May-26 20:55N 46°12' W 123°23'0 0.0
2018-May-26 20:24N 46°12' W 123°23'0 0.0
2018-May-26 20:00N 46°12' W 123°23'0 0.0
2018-May-26 19:30N 46°12' W 123°23'0 0.0
2018-May-26 19:00N 46°12' W 123°23'0 0.0
2018-May-26 18:30N 46°12' W 123°23'0 0.0
2018-May-26 18:00N 46°12' W 123°23'0 0.0
2018-May-26 17:30N 46°12' W 123°23'0 0.0
2018-May-26 17:00N 46°12' W 123°23'0 0.0
2018-May-26 16:31N 46°12' W 123°23'0 0.0
2018-May-26 15:28N 46°12' W 123°23'0 0.0
2018-May-26 14:46N 46°12' W 123°23'0 0.0
2018-May-26 14:30N 46°12' W 123°23'0 0.0
2018-May-26 14:00N 46°12' W 123°23'0 0.0
2018-May-26 13:07N 46°12' W 123°23'0 0.0
2018-May-26 12:53N 46°12' W 123°23'0 0.0
2018-May-26 12:31N 46°12' W 123°23'0 0.0
2018-May-26 12:00N 46°12' W 123°23'0 0.0
2018-May-26 11:31N 46°12' W 123°23'0 0.0
2018-May-26 11:00N 46°12' W 123°23'0 0.0
2018-May-26 10:30N 46°12' W 123°23'0 0.0
2018-May-26 10:00N 46°12' W 123°23'0 0.0
2018-May-26 09:30N 46°12' W 123°23'0 0.0
2018-May-26 09:01N 46°12' W 123°23'0 0.0
2018-May-26 08:31N 46°12' W 123°23'0 0.0
2018-May-26 08:00N 46°12' W 123°23'0 0.0
2018-May-26 07:31N 46°12' W 123°23'0 0.0
2018-May-26 06:59N 46°12' W 123°23'0 0.0
2018-May-26 06:30N 46°12' W 123°23'0 0.0
2018-May-26 05:31N 46°12' W 123°23'0 0.0
2018-May-26 05:00N 46°12' W 123°23'0 0.0
2018-May-26 04:30N 46°12' W 123°23'0 0.0
2018-May-26 04:01N 46°12' W 123°23'0 0.0
2018-May-26 03:30N 46°12' W 123°23'0 0.0
2018-May-26 03:00N 46°12' W 123°23'0 0.0
2018-May-26 02:31N 46°12' W 123°23'0 0.0
2018-May-26 02:01N 46°12' W 123°23'0 0.0
2018-May-26 01:31N 46°12' W 123°23'0 0.0
2018-May-26 01:01N 46°12' W 123°23'0 0.0
2018-May-26 00:26N 46°12' W 123°23'0 0.0
2018-May-26 00:00N 46°12' W 123°23'0 0.0
2018-May-25 23:30N 46°12' W 123°23'0 0.0
2018-May-25 23:00N 46°12' W 123°23'0 0.0
2018-May-25 22:31N 46°12' W 123°23'0 0.0
2018-May-25 22:00N 46°12' W 123°23'0 0.0
2018-May-25 21:30N 46°12' W 123°23'0 0.0
2018-May-25 21:00N 46°12' W 123°23'0 0.0
2018-May-25 20:30N 46°12' W 123°23'0 0.0
2018-May-25 20:00N 46°12' W 123°23'0 0.0
2018-May-25 19:30N 46°12' W 123°23'0 0.0
2018-May-25 19:01N 46°12' W 123°23'0 0.0
2018-May-25 18:30N 46°12' W 123°23'0 0.0
2018-May-25 18:00N 46°12' W 123°23'0 0.0
2018-May-25 17:30N 46°12' W 123°23'0 0.0
2018-May-25 17:00N 46°12' W 123°23'0 0.0
2018-May-25 16:30N 46°12' W 123°23'0 0.0
2018-May-25 16:00N 46°12' W 123°23'0 0.0
2018-May-25 15:30N 46°12' W 123°23'0 0.0
2018-May-25 15:01N 46°12' W 123°23'0 0.0
2018-May-25 14:30N 46°12' W 123°23'0 0.0
2018-May-25 14:01N 46°12' W 123°23'0 0.0
2018-May-25 13:30N 46°12' W 123°23'0 0.0
2018-May-25 12:47N 46°12' W 123°23'0 0.0
2018-May-25 12:30N 46°12' W 123°23'0 0.0
2018-May-25 12:00N 46°12' W 123°23'0 0.0
2018-May-25 11:30N 46°12' W 123°23'0 0.0
2018-May-25 11:00N 46°12' W 123°23'0 0.0
2018-May-25 10:30N 46°12' W 123°23'0 0.0
2018-May-25 10:01N 46°12' W 123°23'0 0.0
2018-May-25 09:30N 46°12' W 123°23'0 0.0
2018-May-25 09:00N 46°12' W 123°23'0 0.0
2018-May-25 08:30N 46°12' W 123°23'0 0.0
2018-May-25 08:00N 46°12' W 123°23'0 0.0
2018-May-25 07:30N 46°12' W 123°23'0 0.0
2018-May-25 06:45N 46°12' W 123°23'0 0.0
2018-May-25 06:30N 46°12' W 123°23'0 0.0
2018-May-25 06:00N 46°12' W 123°23'0 0.0
2018-May-25 05:31N 46°12' W 123°23'0 0.0
2018-May-25 05:00N 46°12' W 123°23'0 0.0
2018-May-25 04:27N 46°12' W 123°23'0 0.0
2018-May-25 04:00N 46°12' W 123°23'0 0.0
2018-May-25 03:30N 46°12' W 123°23'0 0.0
2018-May-25 03:00N 46°12' W 123°23'0 0.0
2018-May-25 02:30N 46°12' W 123°23'0 0.0
2018-May-25 01:58N 46°12' W 123°23'0 0.0
2018-May-25 01:14N 46°12' W 123°23'0 0.0
2018-May-25 01:00N 46°12' W 123°23'0 0.0
2018-May-25 00:30N 46°12' W 123°23'0 0.0
2018-May-24 23:53N 46°12' W 123°23'0 0.0
2018-May-24 23:31N 46°12' W 123°23'0 0.0
2018-May-24 23:00N 46°12' W 123°23'0 0.0
2018-May-24 22:31N 46°12' W 123°23'0 0.0
2018-May-24 21:51N 46°12' W 123°23'0 0.0
2018-May-24 21:30N 46°12' W 123°23'0 0.0
2018-May-24 21:01N 46°12' W 123°23'0 0.0
2018-May-24 20:30N 46°12' W 123°23'0 0.0
2018-May-24 19:50N 46°12' W 123°23'0 0.0
2018-May-24 19:31N 46°12' W 123°23'0 0.0
2018-May-24 19:01N 46°12' W 123°23'0 0.0
2018-May-24 18:31N 46°12' W 123°23'0 0.0
2018-May-24 18:00N 46°12' W 123°23'0 0.0
2018-May-24 17:22N 46°12' W 123°23'0 0.0
2018-May-24 17:00N 46°12' W 123°23'0 0.0
2018-May-24 16:31N 46°12' W 123°23'0 0.0
2018-May-24 15:56N 46°12' W 123°23'0 0.0
2018-May-24 15:30N 46°12' W 123°23'0 0.0
2018-May-24 14:50N 46°12' W 123°23'0 0.0
2018-May-24 14:30N 46°12' W 123°23'0 0.0
2018-May-24 14:00N 46°12' W 123°23'0 0.0
2018-May-24 13:30N 46°12' W 123°23'0 0.0
2018-May-24 09:01N 46°12' W 123°23'0 0.0
2018-May-24 08:30N 46°12' W 123°23'0 0.0
2018-May-24 08:01N 46°12' W 123°23'0 0.0
2018-May-24 07:31N 46°12' W 123°23'0 0.0
2018-May-24 06:59N 46°12' W 123°23'0 0.0
2018-May-24 06:31N 46°12' W 123°23'0 0.0
2018-May-24 06:00N 46°12' W 123°23'0 0.0
2018-May-24 05:30N 46°12' W 123°23'0 0.0
2018-May-24 05:01N 46°12' W 123°23'0 0.0
2018-May-24 04:30N 46°12' W 123°23'0 0.0
2018-May-24 04:00N 46°12' W 123°23'0 0.0
2018-May-24 03:17N 46°12' W 123°23'0 0.0
2018-May-24 03:00N 46°12' W 123°23'0 0.0
2018-May-24 02:30N 46°12' W 123°23'0 0.0
2018-May-24 02:00N 46°12' W 123°23'0 0.0
2018-May-24 00:59N 46°12' W 123°23'0 0.0
2018-May-24 00:30N 46°12' W 123°23'0 0.0
2018-May-24 00:00N 46°12' W 123°23'0 0.0
2018-May-23 23:30N 46°12' W 123°23'0 0.0
2018-May-23 23:01N 46°12' W 123°23'0 0.0
2018-May-23 22:30N 46°12' W 123°23'0 0.0
2018-May-23 22:00N 46°12' W 123°23'0 0.0
2018-May-23 21:30N 46°12' W 123°23'0 0.0
2018-May-23 21:01N 46°12' W 123°23'0 0.0
2018-May-23 20:31N 46°12' W 123°23'0 0.0
2018-May-23 20:00N 46°12' W 123°23'0 0.0
2018-May-23 19:15N 46°12' W 123°23'0 0.0
2018-May-23 19:01N 46°12' W 123°23'0 0.0
2018-May-23 18:15N 46°12' W 123°23'0 0.0
2018-May-23 17:54N 46°12' W 123°23'0 0.0
2018-May-23 17:14N 46°12' W 123°23'0 0.0
2018-May-23 17:00N 46°12' W 123°23'0 0.0
2018-May-23 16:16N 46°12' W 123°23'0 0.0
2018-May-23 16:00N 46°12' W 123°23'0 0.0
2018-May-23 15:30N 46°12' W 123°23'0 0.0
2018-May-23 15:00N 46°12' W 123°23'0 0.0
2018-May-23 14:31N 46°12' W 123°23'0 0.0
2018-May-23 14:00N 46°12' W 123°23'0 0.0
2018-May-23 13:30N 46°12' W 123°23'0 0.0
2018-May-23 12:11N 46°12' W 123°23'0 0.0
2018-May-23 11:41N 46°12' W 123°23'0 0.0
2018-May-23 11:16N 46°12' W 123°23'0 0.0
2018-May-23 11:01N 46°12' W 123°23'0 0.0
2018-May-23 10:31N 46°12' W 123°23'0 0.0
2018-May-23 10:00N 46°12' W 123°23'0 0.0
2018-May-23 09:30N 46°12' W 123°23'0 0.0
2018-May-23 09:00N 46°12' W 123°23'0 0.0
2018-May-23 08:30N 46°12' W 123°23'0 0.0
2018-May-23 08:00N 46°12' W 123°23'0 0.0
2018-May-23 07:31N 46°12' W 123°23'0 0.0
2018-May-23 06:59N 46°12' W 123°23'0 0.0
2018-May-23 06:31N 46°12' W 123°23'0 0.0
2018-May-23 06:01N 46°12' W 123°23'0 0.0
2018-May-23 05:20N 46°12' W 123°23'0 0.0
2018-May-23 05:00N 46°12' W 123°23'0 0.0
2018-May-23 04:29N 46°12' W 123°23'0 0.0
2018-May-23 04:01N 46°12' W 123°23'0 0.0
2018-May-23 03:30N 46°12' W 123°23'0 0.0
2018-May-23 02:54N 46°12' W 123°23'0 0.0
2018-May-23 02:31N 46°12' W 123°23'0 0.0
2018-May-23 02:01N 46°12' W 123°23'0 0.0
2018-May-23 01:31N 46°12' W 123°23'0 0.0
2018-May-23 01:01N 46°12' W 123°23'0 0.0
2018-May-23 00:31N 46°12' W 123°23'0 0.0
2018-May-22 23:46N 46°12' W 123°23'0 0.0
2018-May-22 23:30N 46°12' W 123°23'0 0.0
2018-May-22 23:01N 46°12' W 123°23'0 0.0
2018-May-22 22:30N 46°12' W 123°23'0 0.0
2018-May-22 22:00N 46°12' W 123°23'0 0.0
2018-May-22 21:30N 46°12' W 123°23'0 0.0
2018-May-22 21:01N 46°12' W 123°23'0 0.0
2018-May-22 20:30N 46°12' W 123°23'0 0.0
2018-May-22 20:00N 46°12' W 123°23'0 0.0
2018-May-22 19:30N 46°12' W 123°23'0 0.0
2018-May-22 19:00N 46°12' W 123°23'  

Dump ship's entire track history